sensor_id;sensor_type;location;lat;lon;timestamp;temperature;humidity
22706;DHT22;11520;51.198;4.468;2023-04-03T00:01:51;4.70;99.90
22706;DHT22;11520;51.198;4.468;2023-04-03T00:04:17;4.70;99.90
22706;DHT22;11520;51.198;4.468;2023-04-03T00:06:43;4.70;99.90
22706;DHT22;11520;51.198;4.468;2023-04-03T00:09:09;4.70;99.90
22706;DHT22;11520;51.198;4.468;2023-04-03T00:11:36;4.60;99.90
22706;DHT22;11520;51.198;4.468;2023-04-03T00:14:01;4.60;99.90
22706;DHT22;11520;51.198;4.468;2023-04-03T00:16:27;4.50;99.90
22706;DHT22;11520;51.198;4.468;2023-04-03T00:18:53;4.50;99.90
22706;DHT22;11520;51.198;4.468;2023-04-03T00:21:19;4.40;99.90
22706;DHT22;11520;51.198;4.468;2023-04-03T00:23:48;4.40;99.90
22706;DHT22;11520;51.198;4.468;2023-04-03T00:26:15;4.40;99.90
22706;DHT22;11520;51.198;4.468;2023-04-03T00:28:41;4.40;99.90
22706;DHT22;11520;51.198;4.468;2023-04-03T00:31:09;4.40;99.90
22706;DHT22;11520;51.198;4.468;2023-04-03T00:33:35;4.40;99.90
22706;DHT22;11520;51.198;4.468;2023-04-03T00:36:06;4.30;99.90
22706;DHT22;11520;51.198;4.468;2023-04-03T00:38:33;4.30;99.90
22706;DHT22;11520;51.198;4.468;2023-04-03T00:40:59;4.30;99.90
22706;DHT22;11520;51.198;4.468;2023-04-03T00:43:26;4.20;99.90
22706;DHT22;11520;51.198;4.468;2023-04-03T00:45:55;4.20;99.90
22706;DHT22;11520;51.198;4.468;2023-04-03T00:48:29;4.20;99.90
22706;DHT22;11520;51.198;4.468;2023-04-03T00:50:58;4.20;99.90
22706;DHT22;11520;51.198;4.468;2023-04-03T00:53:35;4.20;99.90
22706;DHT22;11520;51.198;4.468;2023-04-03T00:56:11;4.20;99.90
22706;DHT22;11520;51.198;4.468;2023-04-03T00:58:41;4.20;99.90
22706;DHT22;11520;51.198;4.468;2023-04-03T01:01:12;4.10;99.90
22706;DHT22;11520;51.198;4.468;2023-04-03T01:03:41;4.10;99.90
22706;DHT22;11520;51.198;4.468;2023-04-03T01:06:06;4.10;99.90
22706;DHT22;11520;51.198;4.468;2023-04-03T01:08:34;4.00;99.90
22706;DHT22;11520;51.198;4.468;2023-04-03T01:11:00;4.10;99.90
22706;DHT22;11520;51.198;4.468;2023-04-03T01:13:31;4.10;99.90
22706;DHT22;11520;51.198;4.468;2023-04-03T01:16:01;4.00;99.90
22706;DHT22;11520;51.198;4.468;2023-04-03T01:18:27;4.00;99.90
22706;DHT22;11520;51.198;4.468;2023-04-03T01:25:58;4.00;99.90
22706;DHT22;11520;51.198;4.468;2023-04-03T01:28:34;3.90;99.90
22706;DHT22;11520;51.198;4.468;2023-04-03T01:31:31;3.90;99.90
22706;DHT22;11520;51.198;4.468;2023-04-03T01:33:57;3.80;99.90
22706;DHT22;11520;51.198;4.468;2023-04-03T01:36:26;3.80;99.90
22706;DHT22;11520;51.198;4.468;2023-04-03T01:38:54;3.80;99.90
22706;DHT22;11520;51.198;4.468;2023-04-03T01:41:22;3.90;99.90
22706;DHT22;11520;51.198;4.468;2023-04-03T01:43:48;3.90;99.90
22706;DHT22;11520;51.198;4.468;2023-04-03T01:46:15;3.90;99.90
22706;DHT22;11520;51.198;4.468;2023-04-03T01:48:41;3.90;99.90
22706;DHT22;11520;51.198;4.468;2023-04-03T01:51:08;3.90;99.90
22706;DHT22;11520;51.198;4.468;2023-04-03T01:53:34;3.90;99.90
22706;DHT22;11520;51.198;4.468;2023-04-03T01:56:02;3.80;99.90
22706;DHT22;11520;51.198;4.468;2023-04-03T01:58:29;3.90;99.90
22706;DHT22;11520;51.198;4.468;2023-04-03T02:00:55;3.90;99.90
22706;DHT22;11520;51.198;4.468;2023-04-03T02:03:22;3.90;99.90
22706;DHT22;11520;51.198;4.468;2023-04-03T02:05:49;3.90;99.90
22706;DHT22;11520;51.198;4.468;2023-04-03T02:08:16;3.90;99.90
22706;DHT22;11520;51.198;4.468;2023-04-03T02:10:51;3.90;99.90
22706;DHT22;11520;51.198;4.468;2023-04-03T02:13:17;3.80;99.90
22706;DHT22;11520;51.198;4.468;2023-04-03T02:15:43;3.80;99.90
22706;DHT22;11520;51.198;4.468;2023-04-03T02:18:10;3.80;99.90
22706;DHT22;11520;51.198;4.468;2023-04-03T02:20:37;3.70;99.90
22706;DHT22;11520;51.198;4.468;2023-04-03T02:23:04;3.70;99.90
22706;DHT22;11520;51.198;4.468;2023-04-03T02:25:33;3.80;99.90
22706;DHT22;11520;51.198;4.468;2023-04-03T02:27:59;3.90;99.90
22706;DHT22;11520;51.198;4.468;2023-04-03T02:30:25;3.70;99.90
22706;DHT22;11520;51.198;4.468;2023-04-03T02:32:51;3.80;99.90
22706;DHT22;11520;51.198;4.468;2023-04-03T02:35:17;3.80;99.90
22706;DHT22;11520;51.198;4.468;2023-04-03T02:37:43;3.80;99.90
22706;DHT22;11520;51.198;4.468;2023-04-03T02:40:09;3.70;99.90
22706;DHT22;11520;51.198;4.468;2023-04-03T02:42:37;3.80;99.90
22706;DHT22;11520;51.198;4.468;2023-04-03T02:45:03;3.70;99.90
22706;DHT22;11520;51.198;4.468;2023-04-03T02:47:29;3.70;99.90
22706;DHT22;11520;51.198;4.468;2023-04-03T02:49:55;3.60;99.90
22706;DHT22;11520;51.198;4.468;2023-04-03T02:52:24;3.70;99.90
22706;DHT22;11520;51.198;4.468;2023-04-03T02:54:50;3.60;99.90
22706;DHT22;11520;51.198;4.468;2023-04-03T02:57:15;3.60;99.90
22706;DHT22;11520;51.198;4.468;2023-04-03T02:59:42;3.70;99.90
22706;DHT22;11520;51.198;4.468;2023-04-03T03:02:08;3.50;99.90
22706;DHT22;11520;51.198;4.468;2023-04-03T03:04:34;3.50;99.90
22706;DHT22;11520;51.198;4.468;2023-04-03T03:07:01;3.40;99.90
22706;DHT22;11520;51.198;4.468;2023-04-03T03:09:28;3.50;99.90
22706;DHT22;11520;51.198;4.468;2023-04-03T03:11:55;3.40;99.90
22706;DHT22;11520;51.198;4.468;2023-04-03T03:14:20;3.40;99.90
22706;DHT22;11520;51.198;4.468;2023-04-03T03:16:48;3.40;99.90
22706;DHT22;11520;51.198;4.468;2023-04-03T03:19:14;3.50;99.90
22706;DHT22;11520;51.198;4.468;2023-04-03T03:21:40;3.50;99.90
22706;DHT22;11520;51.198;4.468;2023-04-03T03:24:06;3.30;99.90
22706;DHT22;11520;51.198;4.468;2023-04-03T03:26:32;3.30;99.90
22706;DHT22;11520;51.198;4.468;2023-04-03T03:28:59;3.30;99.90
22706;DHT22;11520;51.198;4.468;2023-04-03T03:31:25;3.30;99.90
22706;DHT22;11520;51.198;4.468;2023-04-03T03:33:51;3.20;99.90
22706;DHT22;11520;51.198;4.468;2023-04-03T03:36:17;3.30;99.90
22706;DHT22;11520;51.198;4.468;2023-04-03T03:38:43;3.20;99.90
22706;DHT22;11520;51.198;4.468;2023-04-03T03:41:08;3.20;99.90
22706;DHT22;11520;51.198;4.468;2023-04-03T03:43:37;3.20;99.90
22706;DHT22;11520;51.198;4.468;2023-04-03T03:46:05;3.20;99.90
22706;DHT22;11520;51.198;4.468;2023-04-03T03:48:30;3.20;99.90
22706;DHT22;11520;51.198;4.468;2023-04-03T03:50:57;3.20;99.90
22706;DHT22;11520;51.198;4.468;2023-04-03T03:53:23;3.10;99.90
22706;DHT22;11520;51.198;4.468;2023-04-03T03:55:51;3.10;99.90
22706;DHT22;11520;51.198;4.468;2023-04-03T03:58:17;3.10;99.90
22706;DHT22;11520;51.198;4.468;2023-04-03T04:00:42;3.10;99.90
22706;DHT22;11520;51.198;4.468;2023-04-03T04:03:08;3.10;99.90
22706;DHT22;11520;51.198;4.468;2023-04-03T04:05:35;3.00;99.90
22706;DHT22;11520;51.198;4.468;2023-04-03T04:08:00;3.00;99.90
22706;DHT22;11520;51.198;4.468;2023-04-03T04:10:27;3.00;99.90
22706;DHT22;11520;51.198;4.468;2023-04-03T04:12:54;3.00;99.90
22706;DHT22;11520;51.198;4.468;2023-04-03T04:15:20;3.00;99.90
22706;DHT22;11520;51.198;4.468;2023-04-03T04:17:49;3.00;99.90
22706;DHT22;11520;51.198;4.468;2023-04-03T04:20:14;3.00;99.90
22706;DHT22;11520;51.198;4.468;2023-04-03T04:22:40;3.00;99.90
22706;DHT22;11520;51.198;4.468;2023-04-03T04:25:07;3.00;99.90
22706;DHT22;11520;51.198;4.468;2023-04-03T04:27:33;2.90;99.90
22706;DHT22;11520;51.198;4.468;2023-04-03T04:29:58;3.00;99.90
22706;DHT22;11520;51.198;4.468;2023-04-03T04:32:24;2.90;99.90
22706;DHT22;11520;51.198;4.468;2023-04-03T04:34:51;3.00;99.90
22706;DHT22;11520;51.198;4.468;2023-04-03T04:37:18;3.00;99.90
22706;DHT22;11520;51.198;4.468;2023-04-03T04:39:45;3.00;99.90
22706;DHT22;11520;51.198;4.468;2023-04-03T04:42:11;3.00;99.90
22706;DHT22;11520;51.198;4.468;2023-04-03T04:44:40;2.90;99.90
22706;DHT22;11520;51.198;4.468;2023-04-03T04:47:06;3.00;99.90
22706;DHT22;11520;51.198;4.468;2023-04-03T04:49:32;2.90;99.90
22706;DHT22;11520;51.198;4.468;2023-04-03T04:51:58;2.90;99.90
22706;DHT22;11520;51.198;4.468;2023-04-03T04:54:24;2.90;99.90
22706;DHT22;11520;51.198;4.468;2023-04-03T04:56:50;2.90;99.90
22706;DHT22;11520;51.198;4.468;2023-04-03T04:59:16;2.90;99.90
22706;DHT22;11520;51.198;4.468;2023-04-03T05:01:44;2.80;99.90
22706;DHT22;11520;51.198;4.468;2023-04-03T05:04:10;2.80;99.90
22706;DHT22;11520;51.198;4.468;2023-04-03T05:06:35;2.90;99.90
22706;DHT22;11520;51.198;4.468;2023-04-03T05:09:03;2.90;99.90
22706;DHT22;11520;51.198;4.468;2023-04-03T05:11:30;2.90;99.90
22706;DHT22;11520;51.198;4.468;2023-04-03T05:13:57;2.90;99.90
22706;DHT22;11520;51.198;4.468;2023-04-03T05:16:23;2.90;99.90
22706;DHT22;11520;51.198;4.468;2023-04-03T05:18:50;2.90;99.90
22706;DHT22;11520;51.198;4.468;2023-04-03T05:21:17;2.80;99.90
22706;DHT22;11520;51.198;4.468;2023-04-03T05:23:51;2.80;99.90
22706;DHT22;11520;51.198;4.468;2023-04-03T05:26:18;2.80;99.90
22706;DHT22;11520;51.198;4.468;2023-04-03T05:28:43;2.70;99.90
22706;DHT22;11520;51.198;4.468;2023-04-03T05:31:12;2.70;99.90
22706;DHT22;11520;51.198;4.468;2023-04-03T05:33:40;2.70;99.90
22706;DHT22;11520;51.198;4.468;2023-04-03T05:36:07;2.80;99.90
22706;DHT22;11520;51.198;4.468;2023-04-03T05:38:42;2.70;99.90
22706;DHT22;11520;51.198;4.468;2023-04-03T05:41:07;2.60;99.90
22706;DHT22;11520;51.198;4.468;2023-04-03T05:43:56;2.50;99.90
22706;DHT22;11520;51.198;4.468;2023-04-03T05:46:23;2.50;99.90
22706;DHT22;11520;51.198;4.468;2023-04-03T05:48:49;2.50;99.90
22706;DHT22;11520;51.198;4.468;2023-04-03T05:51:28;2.50;99.90
22706;DHT22;11520;51.198;4.468;2023-04-03T05:54:34;2.50;99.90
22706;DHT22;11520;51.198;4.468;2023-04-03T05:57:02;2.60;99.90
22706;DHT22;11520;51.198;4.468;2023-04-03T05:59:28;2.60;99.90
22706;DHT22;11520;51.198;4.468;2023-04-03T06:01:54;2.70;99.90
22706;DHT22;11520;51.198;4.468;2023-04-03T06:04:21;2.80;99.90
22706;DHT22;11520;51.198;4.468;2023-04-03T06:06:52;2.90;99.90
22706;DHT22;11520;51.198;4.468;2023-04-03T06:09:25;2.90;99.90
22706;DHT22;11520;51.198;4.468;2023-04-03T06:11:53;2.90;99.90
22706;DHT22;11520;51.198;4.468;2023-04-03T06:14:20;3.00;99.90
22706;DHT22;11520;51.198;4.468;2023-04-03T06:16:47;3.10;99.90
22706;DHT22;11520;51.198;4.468;2023-04-03T06:19:14;3.10;99.90
22706;DHT22;11520;51.198;4.468;2023-04-03T06:21:41;3.10;99.90
22706;DHT22;11520;51.198;4.468;2023-04-03T06:24:13;3.20;99.90
22706;DHT22;11520;51.198;4.468;2023-04-03T06:26:43;3.20;99.90
22706;DHT22;11520;51.198;4.468;2023-04-03T06:29:11;3.20;99.90
22706;DHT22;11520;51.198;4.468;2023-04-03T06:31:36;3.20;99.90
22706;DHT22;11520;51.198;4.468;2023-04-03T06:34:03;3.10;99.90
22706;DHT22;11520;51.198;4.468;2023-04-03T06:36:29;3.20;99.90
22706;DHT22;11520;51.198;4.468;2023-04-03T06:38:58;3.20;99.90
22706;DHT22;11520;51.198;4.468;2023-04-03T06:41:24;3.40;99.90
22706;DHT22;11520;51.198;4.468;2023-04-03T06:43:53;3.40;99.90
22706;DHT22;11520;51.198;4.468;2023-04-03T06:46:23;3.50;99.90
22706;DHT22;11520;51.198;4.468;2023-04-03T06:48:50;3.60;99.90
22706;DHT22;11520;51.198;4.468;2023-04-03T06:51:23;4.00;99.90
22706;DHT22;11520;51.198;4.468;2023-04-03T06:53:52;4.50;99.90
22706;DHT22;11520;51.198;4.468;2023-04-03T06:56:19;5.50;99.90
22706;DHT22;11520;51.198;4.468;2023-04-03T06:58:48;6.90;99.90
22706;DHT22;11520;51.198;4.468;2023-04-03T07:01:18;7.30;99.90
22706;DHT22;11520;51.198;4.468;2023-04-03T07:03:48;8.10;99.90
22706;DHT22;11520;51.198;4.468;2023-04-03T07:06:21;9.00;99.90
22706;DHT22;11520;51.198;4.468;2023-04-03T07:08:47;9.50;99.90
22706;DHT22;11520;51.198;4.468;2023-04-03T07:11:16;9.40;99.90
22706;DHT22;11520;51.198;4.468;2023-04-03T07:13:44;9.10;99.90
22706;DHT22;11520;51.198;4.468;2023-04-03T07:16:10;9.30;99.90
22706;DHT22;11520;51.198;4.468;2023-04-03T07:18:36;10.30;99.90
22706;DHT22;11520;51.198;4.468;2023-04-03T07:21:03;10.40;99.90
22706;DHT22;11520;51.198;4.468;2023-04-03T07:23:30;10.40;99.90
22706;DHT22;11520;51.198;4.468;2023-04-03T07:25:59;10.40;99.90
22706;DHT22;11520;51.198;4.468;2023-04-03T07:28:26;10.70;99.90
22706;DHT22;11520;51.198;4.468;2023-04-03T07:31:00;10.50;99.90
22706;DHT22;11520;51.198;4.468;2023-04-03T07:33:27;11.10;99.90
22706;DHT22;11520;51.198;4.468;2023-04-03T07:35:57;12.60;99.90
22706;DHT22;11520;51.198;4.468;2023-04-03T07:38:24;11.60;99.90
22706;DHT22;11520;51.198;4.468;2023-04-03T07:40:52;10.70;99.90
22706;DHT22;11520;51.198;4.468;2023-04-03T07:43:19;11.20;99.90
22706;DHT22;11520;51.198;4.468;2023-04-03T07:45:47;12.30;99.90
22706;DHT22;11520;51.198;4.468;2023-04-03T07:48:15;12.60;99.90
22706;DHT22;11520;51.198;4.468;2023-04-03T07:50:43;13.10;99.90
22706;DHT22;11520;51.198;4.468;2023-04-03T07:53:11;12.90;99.90
22706;DHT22;11520;51.198;4.468;2023-04-03T07:55:38;13.50;99.90
22706;DHT22;11520;51.198;4.468;2023-04-03T07:58:10;13.00;99.90
22706;DHT22;11520;51.198;4.468;2023-04-03T08:00:38;12.20;99.90
22706;DHT22;11520;51.198;4.468;2023-04-03T08:03:05;11.90;99.90
22706;DHT22;11520;51.198;4.468;2023-04-03T08:05:35;12.40;99.90
22706;DHT22;11520;51.198;4.468;2023-04-03T08:08:04;13.40;99.90
22706;DHT22;11520;51.198;4.468;2023-04-03T08:10:31;14.70;99.20
22706;DHT22;11520;51.198;4.468;2023-04-03T08:12:57;15.40;95.20
22706;DHT22;11520;51.198;4.468;2023-04-03T08:15:24;15.60;93.40
22706;DHT22;11520;51.198;4.468;2023-04-03T08:17:50;15.30;91.80
22706;DHT22;11520;51.198;4.468;2023-04-03T08:20:18;16.60;90.80
22706;DHT22;11520;51.198;4.468;2023-04-03T08:22:44;17.70;84.10
22706;DHT22;11520;51.198;4.468;2023-04-03T08:25:18;17.50;75.30
22706;DHT22;11520;51.198;4.468;2023-04-03T08:27:46;16.90;78.80
22706;DHT22;11520;51.198;4.468;2023-04-03T08:30:18;18.00;74.60
22706;DHT22;11520;51.198;4.468;2023-04-03T08:32:53;17.60;69.40
22706;DHT22;11520;51.198;4.468;2023-04-03T08:35:21;17.60;72.40
22706;DHT22;11520;51.198;4.468;2023-04-03T08:37:47;17.90;73.70
22706;DHT22;11520;51.198;4.468;2023-04-03T08:40:15;17.80;69.10
22706;DHT22;11520;51.198;4.468;2023-04-03T08:43:38;19.40;68.20
22706;DHT22;11520;51.198;4.468;2023-04-03T08:45:55;19.60;63.70
22706;DHT22;11520;51.198;4.468;2023-04-03T08:48:39;17.40;60.90
22706;DHT22;11520;51.198;4.468;2023-04-03T08:51:17;17.00;67.80
22706;DHT22;11520;51.198;4.468;2023-04-03T08:54:00;17.50;63.50
22706;DHT22;11520;51.198;4.468;2023-04-03T08:56:30;18.20;64.20
22706;DHT22;11520;51.198;4.468;2023-04-03T08:58:59;15.30;68.20
22706;DHT22;11520;51.198;4.468;2023-04-03T09:01:45;14.80;74.30
22706;DHT22;11520;51.198;4.468;2023-04-03T09:04:14;14.00;75.80
22706;DHT22;11520;51.198;4.468;2023-04-03T09:06:52;14.00;77.10
22706;DHT22;11520;51.198;4.468;2023-04-03T09:09:44;15.50;74.70
22706;DHT22;11520;51.198;4.468;2023-04-03T09:12:36;15.00;70.50
22706;DHT22;11520;51.198;4.468;2023-04-03T09:15:16;15.00;70.60
22706;DHT22;11520;51.198;4.468;2023-04-03T09:22:55;15.80;70.00
22706;DHT22;11520;51.198;4.468;2023-04-03T09:25:32;15.60;69.70
22706;DHT22;11520;51.198;4.468;2023-04-03T09:28:00;14.90;69.00
22706;DHT22;11520;51.198;4.468;2023-04-03T09:30:32;14.50;70.90
22706;DHT22;11520;51.198;4.468;2023-04-03T09:32:59;15.40;74.60
22706;DHT22;11520;51.198;4.468;2023-04-03T09:35:30;17.00;70.20
22706;DHT22;11520;51.198;4.468;2023-04-03T09:38:02;18.30;63.80
22706;DHT22;11520;51.198;4.468;2023-04-03T09:40:48;19.80;62.60
22706;DHT22;11520;51.198;4.468;2023-04-03T09:43:32;20.50;57.50
22706;DHT22;11520;51.198;4.468;2023-04-03T09:46:33;19.40;59.30
22706;DHT22;11520;51.198;4.468;2023-04-03T09:49:05;18.30;56.30
22706;DHT22;11520;51.198;4.468;2023-04-03T09:51:34;16.50;60.10
22706;DHT22;11520;51.198;4.468;2023-04-03T09:54:00;14.90;64.40
22706;DHT22;11520;51.198;4.468;2023-04-03T09:56:50;14.30;69.00
22706;DHT22;11520;51.198;4.468;2023-04-03T09:59:16;15.70;67.20
22706;DHT22;11520;51.198;4.468;2023-04-03T10:01:56;16.40;64.70
22706;DHT22;11520;51.198;4.468;2023-04-03T10:04:25;16.10;62.80
22706;DHT22;11520;51.198;4.468;2023-04-03T10:06:54;18.20;59.50
22706;DHT22;11520;51.198;4.468;2023-04-03T10:09:31;19.40;55.70
22706;DHT22;11520;51.198;4.468;2023-04-03T10:12:04;19.30;53.00
22706;DHT22;11520;51.198;4.468;2023-04-03T10:14:37;16.50;55.60
22706;DHT22;11520;51.198;4.468;2023-04-03T10:28:26;16.60;55.20
22706;DHT22;11520;51.198;4.468;2023-04-03T10:31:18;17.60;55.60
22706;DHT22;11520;51.198;4.468;2023-04-03T10:36:36;17.60;53.70
22706;DHT22;11520;51.198;4.468;2023-04-03T10:53:31;15.50;55.50
22706;DHT22;11520;51.198;4.468;2023-04-03T10:59:02;16.60;52.10
22706;DHT22;11520;51.198;4.468;2023-04-03T11:01:35;16.70;53.50
22706;DHT22;11520;51.198;4.468;2023-04-03T11:04:06;17.30;51.80
22706;DHT22;11520;51.198;4.468;2023-04-03T11:06:47;16.50;52.90
22706;DHT22;11520;51.198;4.468;2023-04-03T11:09:28;16.40;49.60
22706;DHT22;11520;51.198;4.468;2023-04-03T11:12:04;15.10;50.80
22706;DHT22;11520;51.198;4.468;2023-04-03T11:14:36;15.10;52.50
22706;DHT22;11520;51.198;4.468;2023-04-03T11:23:19;14.70;52.70
22706;DHT22;11520;51.198;4.468;2023-04-03T11:25:53;14.70;51.10
22706;DHT22;11520;51.198;4.468;2023-04-03T11:28:22;14.70;50.50
22706;DHT22;11520;51.198;4.468;2023-04-03T11:36:32;13.60;51.40
22706;DHT22;11520;51.198;4.468;2023-04-03T11:39:18;13.60;51.50
22706;DHT22;11520;51.198;4.468;2023-04-03T11:41:50;14.50;52.30
22706;DHT22;11520;51.198;4.468;2023-04-03T11:44:36;15.40;49.10
22706;DHT22;11520;51.198;4.468;2023-04-03T11:47:10;14.90;48.10
22706;DHT22;11520;51.198;4.468;2023-04-03T11:50:00;13.80;49.10
22706;DHT22;11520;51.198;4.468;2023-04-03T12:00:47;16.00;45.80
22706;DHT22;11520;51.198;4.468;2023-04-03T12:08:57;13.40;48.40
22706;DHT22;11520;51.198;4.468;2023-04-03T12:11:38;13.30;48.50
22706;DHT22;11520;51.198;4.468;2023-04-03T12:14:05;13.50;48.80
22706;DHT22;11520;51.198;4.468;2023-04-03T12:24:27;13.50;49.50
22706;DHT22;11520;51.198;4.468;2023-04-03T12:29:42;13.40;50.40
22706;DHT22;11520;51.198;4.468;2023-04-03T12:35:35;13.70;49.80
22706;DHT22;11520;51.198;4.468;2023-04-03T12:47:35;12.30;47.00
22706;DHT22;11520;51.198;4.468;2023-04-03T12:50:16;12.30;50.50
22706;DHT22;11520;51.198;4.468;2023-04-03T12:53:27;11.90;51.00
22706;DHT22;11520;51.198;4.468;2023-04-03T12:56:19;11.90;50.70
22706;DHT22;11520;51.198;4.468;2023-04-03T12:59:21;11.90;49.10
22706;DHT22;11520;51.198;4.468;2023-04-03T13:02:36;12.40;50.20
22706;DHT22;11520;51.198;4.468;2023-04-03T13:07:37;11.30;49.10
22706;DHT22;11520;51.198;4.468;2023-04-03T13:15:21;11.00;52.70
22706;DHT22;11520;51.198;4.468;2023-04-03T13:17:49;11.10;53.80
22706;DHT22;11520;51.198;4.468;2023-04-03T13:20:29;11.10;52.40
22706;DHT22;11520;51.198;4.468;2023-04-03T13:23:05;11.00;53.30
22706;DHT22;11520;51.198;4.468;2023-04-03T13:25:36;10.90;53.40
22706;DHT22;11520;51.198;4.468;2023-04-03T13:28:05;10.90;54.90
22706;DHT22;11520;51.198;4.468;2023-04-03T13:30:37;11.10;56.30
22706;DHT22;11520;51.198;4.468;2023-04-03T13:33:21;11.20;56.00
22706;DHT22;11520;51.198;4.468;2023-04-03T13:40:52;11.00;53.60
22706;DHT22;11520;51.198;4.468;2023-04-03T13:43:21;11.10;53.40
22706;DHT22;11520;51.198;4.468;2023-04-03T13:48:45;10.90;52.70
22706;DHT22;11520;51.198;4.468;2023-04-03T13:53:47;10.90;54.90
22706;DHT22;11520;51.198;4.468;2023-04-03T13:56:29;11.00;54.20
22706;DHT22;11520;51.198;4.468;2023-04-03T14:01:34;10.90;54.40
22706;DHT22;11520;51.198;4.468;2023-04-03T14:04:09;11.00;55.40
22706;DHT22;11520;51.198;4.468;2023-04-03T14:06:35;11.00;55.60
22706;DHT22;11520;51.198;4.468;2023-04-03T14:09:01;10.90;55.20
22706;DHT22;11520;51.198;4.468;2023-04-03T14:11:30;10.90;54.80
22706;DHT22;11520;51.198;4.468;2023-04-03T14:13:58;10.80;54.60
22706;DHT22;11520;51.198;4.468;2023-04-03T14:16:30;10.90;55.80
22706;DHT22;11520;51.198;4.468;2023-04-03T14:18:56;10.90;54.40
22706;DHT22;11520;51.198;4.468;2023-04-03T14:21:22;10.80;52.40
22706;DHT22;11520;51.198;4.468;2023-04-03T14:23:49;10.80;52.30
22706;DHT22;11520;51.198;4.468;2023-04-03T14:26:21;11.00;53.40
22706;DHT22;11520;51.198;4.468;2023-04-03T14:28:51;11.00;52.30
22706;DHT22;11520;51.198;4.468;2023-04-03T14:31:18;11.00;55.00
22706;DHT22;11520;51.198;4.468;2023-04-03T14:33:44;11.20;54.50
22706;DHT22;11520;51.198;4.468;2023-04-03T14:36:30;11.20;53.40
22706;DHT22;11520;51.198;4.468;2023-04-03T14:38:57;11.10;52.10
22706;DHT22;11520;51.198;4.468;2023-04-03T14:41:25;11.10;52.40
22706;DHT22;11520;51.198;4.468;2023-04-03T14:43:51;11.00;52.00
22706;DHT22;11520;51.198;4.468;2023-04-03T14:46:38;11.00;53.30
22706;DHT22;11520;51.198;4.468;2023-04-03T14:49:15;11.20;53.50
22706;DHT22;11520;51.198;4.468;2023-04-03T14:51:43;11.10;53.30
22706;DHT22;11520;51.198;4.468;2023-04-03T14:54:14;10.90;53.90
22706;DHT22;11520;51.198;4.468;2023-04-03T14:56:41;11.00;52.70
22706;DHT22;11520;51.198;4.468;2023-04-03T14:59:09;11.20;53.40
22706;DHT22;11520;51.198;4.468;2023-04-03T15:01:36;11.40;53.50
22706;DHT22;11520;51.198;4.468;2023-04-03T15:04:10;11.40;52.80
22706;DHT22;11520;51.198;4.468;2023-04-03T15:06:36;11.50;52.40
22706;DHT22;11520;51.198;4.468;2023-04-03T15:09:24;11.50;53.00
22706;DHT22;11520;51.198;4.468;2023-04-03T15:11:52;11.30;52.90
22706;DHT22;11520;51.198;4.468;2023-04-03T15:14:18;11.20;53.00
22706;DHT22;11520;51.198;4.468;2023-04-03T15:16:44;11.10;52.80
22706;DHT22;11520;51.198;4.468;2023-04-03T15:19:11;11.10;53.20
22706;DHT22;11520;51.198;4.468;2023-04-03T15:21:38;11.00;52.40
22706;DHT22;11520;51.198;4.468;2023-04-03T15:24:04;10.90;51.80
22706;DHT22;11520;51.198;4.468;2023-04-03T15:26:30;10.80;52.10
22706;DHT22;11520;51.198;4.468;2023-04-03T15:29:03;10.90;53.10
22706;DHT22;11520;51.198;4.468;2023-04-03T15:31:30;11.10;53.30
22706;DHT22;11520;51.198;4.468;2023-04-03T15:33:57;11.10;53.90
22706;DHT22;11520;51.198;4.468;2023-04-03T15:36:23;11.00;53.30
22706;DHT22;11520;51.198;4.468;2023-04-03T15:38:49;11.00;54.50
22706;DHT22;11520;51.198;4.468;2023-04-03T15:41:15;11.00;54.20
22706;DHT22;11520;51.198;4.468;2023-04-03T15:43:41;10.90;54.50
22706;DHT22;11520;51.198;4.468;2023-04-03T15:46:07;10.90;55.60
22706;DHT22;11520;51.198;4.468;2023-04-03T15:48:32;10.80;56.20
22706;DHT22;11520;51.198;4.468;2023-04-03T15:50:59;10.90;56.80
22706;DHT22;11520;51.198;4.468;2023-04-03T15:53:26;10.90;55.10
22706;DHT22;11520;51.198;4.468;2023-04-03T15:55:52;10.90;53.60
22706;DHT22;11520;51.198;4.468;2023-04-03T15:58:17;10.90;54.20
22706;DHT22;11520;51.198;4.468;2023-04-03T16:00:43;10.70;54.10
22706;DHT22;11520;51.198;4.468;2023-04-03T16:03:16;10.70;55.20
22706;DHT22;11520;51.198;4.468;2023-04-03T16:05:43;10.90;56.20
22706;DHT22;11520;51.198;4.468;2023-04-03T16:08:09;10.90;55.60
22706;DHT22;11520;51.198;4.468;2023-04-03T16:10:36;10.70;55.10
22706;DHT22;11520;51.198;4.468;2023-04-03T16:13:02;10.80;56.60
22706;DHT22;11520;51.198;4.468;2023-04-03T16:15:29;10.80;56.30
22706;DHT22;11520;51.198;4.468;2023-04-03T16:17:58;10.90;56.70
22706;DHT22;11520;51.198;4.468;2023-04-03T16:20:24;10.90;57.00
22706;DHT22;11520;51.198;4.468;2023-04-03T16:22:52;10.90;57.90
22706;DHT22;11520;51.198;4.468;2023-04-03T16:25:18;10.90;58.00
22706;DHT22;11520;51.198;4.468;2023-04-03T16:27:43;10.90;58.40
22706;DHT22;11520;51.198;4.468;2023-04-03T16:30:10;10.90;59.40
22706;DHT22;11520;51.198;4.468;2023-04-03T16:32:39;10.60;59.30
22706;DHT22;11520;51.198;4.468;2023-04-03T16:35:06;10.60;59.90
22706;DHT22;11520;51.198;4.468;2023-04-03T16:37:32;10.50;59.40
22706;DHT22;11520;51.198;4.468;2023-04-03T16:39:57;10.40;60.00
22706;DHT22;11520;51.198;4.468;2023-04-03T16:42:24;10.30;61.50
22706;DHT22;11520;51.198;4.468;2023-04-03T16:44:50;10.30;62.00
22706;DHT22;11520;51.198;4.468;2023-04-03T16:47:16;10.30;62.40
22706;DHT22;11520;51.198;4.468;2023-04-03T16:49:45;10.40;62.80
22706;DHT22;11520;51.198;4.468;2023-04-03T16:52:10;10.30;62.30
22706;DHT22;11520;51.198;4.468;2023-04-03T16:54:36;10.30;62.60
22706;DHT22;11520;51.198;4.468;2023-04-03T16:57:02;10.30;63.10
22706;DHT22;11520;51.198;4.468;2023-04-03T16:59:29;10.30;64.10
22706;DHT22;11520;51.198;4.468;2023-04-03T17:01:55;10.20;63.20
22706;DHT22;11520;51.198;4.468;2023-04-03T17:04:20;10.10;63.00
22706;DHT22;11520;51.198;4.468;2023-04-03T17:06:47;10.10;64.70
22706;DHT22;11520;51.198;4.468;2023-04-03T17:09:14;10.10;63.70
22706;DHT22;11520;51.198;4.468;2023-04-03T17:11:40;10.10;64.50
22706;DHT22;11520;51.198;4.468;2023-04-03T17:14:06;10.00;64.30
22706;DHT22;11520;51.198;4.468;2023-04-03T17:16:34;10.00;64.10
22706;DHT22;11520;51.198;4.468;2023-04-03T17:19:00;10.00;64.70
22706;DHT22;11520;51.198;4.468;2023-04-03T17:21:27;9.90;65.90
22706;DHT22;11520;51.198;4.468;2023-04-03T17:23:59;10.00;66.80
22706;DHT22;11520;51.198;4.468;2023-04-03T17:26:26;9.90;68.00
22706;DHT22;11520;51.198;4.468;2023-04-03T17:28:52;9.80;67.30
22706;DHT22;11520;51.198;4.468;2023-04-03T17:31:18;9.60;67.30
22706;DHT22;11520;51.198;4.468;2023-04-03T17:33:44;9.50;67.90
22706;DHT22;11520;51.198;4.468;2023-04-03T17:36:10;9.50;68.40
22706;DHT22;11520;51.198;4.468;2023-04-03T17:38:36;9.50;68.70
22706;DHT22;11520;51.198;4.468;2023-04-03T17:41:06;9.30;68.50
22706;DHT22;11520;51.198;4.468;2023-04-03T17:43:41;9.30;69.70
22706;DHT22;11520;51.198;4.468;2023-04-03T17:46:09;9.30;71.20